sensor_id;sensor_type;location;lat;lon;timestamp;temperature;humidity
46490;DHT22;32204;49.160;8.580;2022-11-27T00:01:58;3.00;99.90
46490;DHT22;32204;49.160;8.580;2022-11-27T00:04:23;3.10;99.90
46490;DHT22;32204;49.160;8.580;2022-11-27T00:06:49;3.10;99.90
46490;DHT22;32204;49.160;8.580;2022-11-27T00:09:15;3.10;99.90
46490;DHT22;32204;49.160;8.580;2022-11-27T00:11:42;3.10;99.90
46490;DHT22;32204;49.160;8.580;2022-11-27T00:14:11;3.10;99.90
46490;DHT22;32204;49.160;8.580;2022-11-27T00:16:37;3.10;99.90
46490;DHT22;32204;49.160;8.580;2022-11-27T00:19:02;3.00;99.90
46490;DHT22;32204;49.160;8.580;2022-11-27T00:21:31;3.10;99.90
46490;DHT22;32204;49.160;8.580;2022-11-27T00:24:00;3.10;99.90
46490;DHT22;32204;49.160;8.580;2022-11-27T00:26:27;3.10;99.90
46490;DHT22;32204;49.160;8.580;2022-11-27T00:28:53;3.00;99.90
46490;DHT22;32204;49.160;8.580;2022-11-27T00:31:21;3.00;99.90
46490;DHT22;32204;49.160;8.580;2022-11-27T00:33:53;3.00;99.90
46490;DHT22;32204;49.160;8.580;2022-11-27T00:36:18;2.90;99.90
46490;DHT22;32204;49.160;8.580;2022-11-27T00:38:44;3.00;99.90
46490;DHT22;32204;49.160;8.580;2022-11-27T00:41:22;2.90;99.90
46490;DHT22;32204;49.160;8.580;2022-11-27T00:43:48;2.90;99.90
46490;DHT22;32204;49.160;8.580;2022-11-27T00:46:15;2.80;99.90
46490;DHT22;32204;49.160;8.580;2022-11-27T00:48:41;2.80;99.90
46490;DHT22;32204;49.160;8.580;2022-11-27T00:51:09;2.80;99.90
46490;DHT22;32204;49.160;8.580;2022-11-27T00:53:35;2.90;99.90
46490;DHT22;32204;49.160;8.580;2022-11-27T00:56:01;2.80;99.90
46490;DHT22;32204;49.160;8.580;2022-11-27T00:58:27;2.70;99.90
46490;DHT22;32204;49.160;8.580;2022-11-27T01:00:59;2.80;99.90
46490;DHT22;32204;49.160;8.580;2022-11-27T01:03:26;2.90;99.90
46490;DHT22;32204;49.160;8.580;2022-11-27T01:05:52;2.80;99.90
46490;DHT22;32204;49.160;8.580;2022-11-27T01:08:17;2.90;99.90
46490;DHT22;32204;49.160;8.580;2022-11-27T01:10:52;2.80;99.90
46490;DHT22;32204;49.160;8.580;2022-11-27T01:13:18;2.80;99.90
46490;DHT22;32204;49.160;8.580;2022-11-27T01:15:44;2.80;99.90
46490;DHT22;32204;49.160;8.580;2022-11-27T01:18:10;2.80;99.90
46490;DHT22;32204;49.160;8.580;2022-11-27T01:20:39;2.90;99.90
46490;DHT22;32204;49.160;8.580;2022-11-27T01:23:06;2.90;99.90
46490;DHT22;32204;49.160;8.580;2022-11-27T01:25:33;2.90;99.90
46490;DHT22;32204;49.160;8.580;2022-11-27T01:28:00;2.80;99.90
46490;DHT22;32204;49.160;8.580;2022-11-27T01:30:25;2.80;99.90
46490;DHT22;32204;49.160;8.580;2022-11-27T01:32:51;2.70;99.90
46490;DHT22;32204;49.160;8.580;2022-11-27T01:35:17;2.80;99.90
46490;DHT22;32204;49.160;8.580;2022-11-27T01:37:42;2.80;99.90
46490;DHT22;32204;49.160;8.580;2022-11-27T01:40:09;2.80;99.90
46490;DHT22;32204;49.160;8.580;2022-11-27T01:42:34;2.90;99.90
46490;DHT22;32204;49.160;8.580;2022-11-27T01:45:00;2.90;99.90
46490;DHT22;32204;49.160;8.580;2022-11-27T01:47:33;2.90;99.90
46490;DHT22;32204;49.160;8.580;2022-11-27T01:50:08;2.90;99.90
46490;DHT22;32204;49.160;8.580;2022-11-27T01:52:37;2.80;99.90
46490;DHT22;32204;49.160;8.580;2022-11-27T01:55:18;2.80;99.90
46490;DHT22;32204;49.160;8.580;2022-11-27T01:57:55;2.80;99.90
46490;DHT22;32204;49.160;8.580;2022-11-27T02:00:23;2.80;99.90
46490;DHT22;32204;49.160;8.580;2022-11-27T02:02:49;2.80;99.90
46490;DHT22;32204;49.160;8.580;2022-11-27T02:05:18;2.80;99.90
46490;DHT22;32204;49.160;8.580;2022-11-27T02:07:44;2.70;99.90
46490;DHT22;32204;49.160;8.580;2022-11-27T02:10:11;2.70;99.90
46490;DHT22;32204;49.160;8.580;2022-11-27T02:13:04;2.80;99.90
46490;DHT22;32204;49.160;8.580;2022-11-27T02:15:41;2.80;99.90
46490;DHT22;32204;49.160;8.580;2022-11-27T02:18:29;2.80;99.90
46490;DHT22;32204;49.160;8.580;2022-11-27T02:21:06;3.00;99.90
46490;DHT22;32204;49.160;8.580;2022-11-27T02:23:49;3.20;99.90
46490;DHT22;32204;49.160;8.580;2022-11-27T02:29:08;3.40;99.90
46490;DHT22;32204;49.160;8.580;2022-11-27T02:34:32;3.50;99.90
46490;DHT22;32204;49.160;8.580;2022-11-27T02:37:05;3.60;99.90
46490;DHT22;32204;49.160;8.580;2022-11-27T02:39:44;3.60;99.90
46490;DHT22;32204;49.160;8.580;2022-11-27T02:42:15;3.60;99.90
46490;DHT22;32204;49.160;8.580;2022-11-27T02:44:51;3.40;99.90
46490;DHT22;32204;49.160;8.580;2022-11-27T02:47:18;3.30;99.90
46490;DHT22;32204;49.160;8.580;2022-11-27T02:49:46;3.10;99.90
46490;DHT22;32204;49.160;8.580;2022-11-27T02:52:14;2.90;99.90
46490;DHT22;32204;49.160;8.580;2022-11-27T02:54:43;3.00;99.90
46490;DHT22;32204;49.160;8.580;2022-11-27T02:57:10;3.00;99.90
46490;DHT22;32204;49.160;8.580;2022-11-27T02:59:37;3.00;99.90
46490;DHT22;32204;49.160;8.580;2022-11-27T03:02:07;3.10;99.90
46490;DHT22;32204;49.160;8.580;2022-11-27T03:04:37;3.30;99.90
46490;DHT22;32204;49.160;8.580;2022-11-27T03:07:13;3.40;99.90
46490;DHT22;32204;49.160;8.580;2022-11-27T03:09:43;3.60;99.90
46490;DHT22;32204;49.160;8.580;2022-11-27T03:12:11;3.60;99.90
46490;DHT22;32204;49.160;8.580;2022-11-27T03:14:38;3.70;99.90
46490;DHT22;32204;49.160;8.580;2022-11-27T03:20:16;3.80;99.90
46490;DHT22;32204;49.160;8.580;2022-11-27T03:22:43;3.80;99.90
46490;DHT22;32204;49.160;8.580;2022-11-27T03:25:09;3.70;99.90
46490;DHT22;32204;49.160;8.580;2022-11-27T03:27:39;3.90;99.90
46490;DHT22;32204;49.160;8.580;2022-11-27T03:30:08;3.90;99.90
46490;DHT22;32204;49.160;8.580;2022-11-27T03:32:34;3.90;99.90
46490;DHT22;32204;49.160;8.580;2022-11-27T03:35:00;4.00;99.90
46490;DHT22;32204;49.160;8.580;2022-11-27T03:37:26;3.90;99.90
46490;DHT22;32204;49.160;8.580;2022-11-27T03:39:52;3.80;99.90
46490;DHT22;32204;49.160;8.580;2022-11-27T03:53:43;4.00;99.90
46490;DHT22;32204;49.160;8.580;2022-11-27T03:56:25;4.00;99.90
46490;DHT22;32204;49.160;8.580;2022-11-27T03:59:15;4.00;99.90
46490;DHT22;32204;49.160;8.580;2022-11-27T04:01:42;3.90;99.90
46490;DHT22;32204;49.160;8.580;2022-11-27T04:04:08;4.00;99.90
46490;DHT22;32204;49.160;8.580;2022-11-27T04:06:34;4.00;99.90
46490;DHT22;32204;49.160;8.580;2022-11-27T04:08:59;4.00;99.90
46490;DHT22;32204;49.160;8.580;2022-11-27T04:11:25;4.10;99.90
46490;DHT22;32204;49.160;8.580;2022-11-27T04:13:50;4.00;99.90
46490;DHT22;32204;49.160;8.580;2022-11-27T04:16:17;4.10;99.90
46490;DHT22;32204;49.160;8.580;2022-11-27T04:18:43;4.10;99.90
46490;DHT22;32204;49.160;8.580;2022-11-27T04:21:09;4.20;99.90
46490;DHT22;32204;49.160;8.580;2022-11-27T04:23:34;4.20;99.90
46490;DHT22;32204;49.160;8.580;2022-11-27T04:26:02;4.20;99.90
46490;DHT22;32204;49.160;8.580;2022-11-27T04:28:27;4.00;99.90
46490;DHT22;32204;49.160;8.580;2022-11-27T04:30:53;4.00;99.90
46490;DHT22;32204;49.160;8.580;2022-11-27T04:33:19;4.10;99.90
46490;DHT22;32204;49.160;8.580;2022-11-27T04:35:45;4.00;99.90
46490;DHT22;32204;49.160;8.580;2022-11-27T04:38:10;3.90;99.90
46490;DHT22;32204;49.160;8.580;2022-11-27T04:40:36;3.80;99.90
46490;DHT22;32204;49.160;8.580;2022-11-27T04:43:01;3.80;99.90
46490;DHT22;32204;49.160;8.580;2022-11-27T04:45:27;3.80;99.90
46490;DHT22;32204;49.160;8.580;2022-11-27T04:47:53;3.80;99.90
46490;DHT22;32204;49.160;8.580;2022-11-27T04:50:18;3.70;99.90
46490;DHT22;32204;49.160;8.580;2022-11-27T04:52:44;3.60;99.90
46490;DHT22;32204;49.160;8.580;2022-11-27T04:55:09;3.60;99.90
46490;DHT22;32204;49.160;8.580;2022-11-27T04:57:35;3.70;99.90
46490;DHT22;32204;49.160;8.580;2022-11-27T05:00:02;3.80;99.90
46490;DHT22;32204;49.160;8.580;2022-11-27T05:02:29;4.00;99.90
46490;DHT22;32204;49.160;8.580;2022-11-27T05:04:54;4.00;99.90
46490;DHT22;32204;49.160;8.580;2022-11-27T05:07:20;4.00;99.90
46490;DHT22;32204;49.160;8.580;2022-11-27T05:09:45;4.10;99.90
46490;DHT22;32204;49.160;8.580;2022-11-27T05:12:11;4.10;99.90
46490;DHT22;32204;49.160;8.580;2022-11-27T05:14:37;4.20;99.90
46490;DHT22;32204;49.160;8.580;2022-11-27T05:17:03;4.20;99.90
46490;DHT22;32204;49.160;8.580;2022-11-27T05:19:29;4.20;99.90
46490;DHT22;32204;49.160;8.580;2022-11-27T05:21:56;4.20;99.90
46490;DHT22;32204;49.160;8.580;2022-11-27T05:24:23;4.20;99.90
46490;DHT22;32204;49.160;8.580;2022-11-27T05:26:50;4.30;99.90
46490;DHT22;32204;49.160;8.580;2022-11-27T05:29:16;4.30;99.90
46490;DHT22;32204;49.160;8.580;2022-11-27T05:31:42;4.20;99.90
46490;DHT22;32204;49.160;8.580;2022-11-27T05:34:08;4.20;99.90
46490;DHT22;32204;49.160;8.580;2022-11-27T05:36:34;4.20;99.90
46490;DHT22;32204;49.160;8.580;2022-11-27T05:39:01;4.20;99.90
46490;DHT22;32204;49.160;8.580;2022-11-27T05:41:28;4.20;99.90
46490;DHT22;32204;49.160;8.580;2022-11-27T05:43:53;4.20;99.90
46490;DHT22;32204;49.160;8.580;2022-11-27T05:46:21;4.10;99.90
46490;DHT22;32204;49.160;8.580;2022-11-27T05:48:47;4.20;99.90
46490;DHT22;32204;49.160;8.580;2022-11-27T05:51:13;4.20;99.90
46490;DHT22;32204;49.160;8.580;2022-11-27T05:53:39;4.20;99.90
46490;DHT22;32204;49.160;8.580;2022-11-27T05:56:08;4.30;99.90
46490;DHT22;32204;49.160;8.580;2022-11-27T05:58:34;4.10;99.90
46490;DHT22;32204;49.160;8.580;2022-11-27T06:01:01;4.20;99.90
46490;DHT22;32204;49.160;8.580;2022-11-27T06:03:26;4.20;99.90
46490;DHT22;32204;49.160;8.580;2022-11-27T06:05:52;4.20;99.90
46490;DHT22;32204;49.160;8.580;2022-11-27T06:08:19;4.20;99.90
46490;DHT22;32204;49.160;8.580;2022-11-27T06:10:46;4.10;99.90
46490;DHT22;32204;49.160;8.580;2022-11-27T06:13:12;4.30;99.90
46490;DHT22;32204;49.160;8.580;2022-11-27T06:15:38;4.10;99.90
46490;DHT22;32204;49.160;8.580;2022-11-27T06:18:05;4.10;99.90
46490;DHT22;32204;49.160;8.580;2022-11-27T06:20:31;4.10;99.90
46490;DHT22;32204;49.160;8.580;2022-11-27T06:22:56;4.10;99.90
46490;DHT22;32204;49.160;8.580;2022-11-27T06:25:22;4.00;99.90
46490;DHT22;32204;49.160;8.580;2022-11-27T06:27:49;4.10;99.90
46490;DHT22;32204;49.160;8.580;2022-11-27T06:30:15;4.10;99.90
46490;DHT22;32204;49.160;8.580;2022-11-27T06:32:40;3.70;99.90
46490;DHT22;32204;49.160;8.580;2022-11-27T06:35:06;3.60;99.90
46490;DHT22;32204;49.160;8.580;2022-11-27T06:37:32;3.30;99.90
46490;DHT22;32204;49.160;8.580;2022-11-27T06:39:58;3.20;99.90
46490;DHT22;32204;49.160;8.580;2022-11-27T06:42:24;3.10;99.90
46490;DHT22;32204;49.160;8.580;2022-11-27T06:44:49;3.00;99.90
46490;DHT22;32204;49.160;8.580;2022-11-27T06:47:15;2.90;99.90
46490;DHT22;32204;49.160;8.580;2022-11-27T06:49:40;2.80;99.90
46490;DHT22;32204;49.160;8.580;2022-11-27T06:52:06;2.60;99.90
46490;DHT22;32204;49.160;8.580;2022-11-27T06:54:31;2.60;99.90
46490;DHT22;32204;49.160;8.580;2022-11-27T06:56:57;2.60;99.90
46490;DHT22;32204;49.160;8.580;2022-11-27T06:59:23;2.50;99.90
46490;DHT22;32204;49.160;8.580;2022-11-27T07:01:48;2.60;99.90
46490;DHT22;32204;49.160;8.580;2022-11-27T07:04:15;2.70;99.90
46490;DHT22;32204;49.160;8.580;2022-11-27T07:06:41;2.90;99.90
46490;DHT22;32204;49.160;8.580;2022-11-27T07:09:08;3.20;99.90
46490;DHT22;32204;49.160;8.580;2022-11-27T07:11:34;3.00;99.90
46490;DHT22;32204;49.160;8.580;2022-11-27T07:14:02;3.00;99.90
46490;DHT22;32204;49.160;8.580;2022-11-27T07:16:30;2.80;99.90
46490;DHT22;32204;49.160;8.580;2022-11-27T07:19:04;2.90;99.90
46490;DHT22;32204;49.160;8.580;2022-11-27T07:21:30;2.90;99.90
46490;DHT22;32204;49.160;8.580;2022-11-27T07:23:56;3.00;99.90
46490;DHT22;32204;49.160;8.580;2022-11-27T07:26:24;3.10;99.90
46490;DHT22;32204;49.160;8.580;2022-11-27T07:28:50;3.00;99.90
46490;DHT22;32204;49.160;8.580;2022-11-27T07:31:19;2.90;99.90
46490;DHT22;32204;49.160;8.580;2022-11-27T07:33:45;2.80;99.90
46490;DHT22;32204;49.160;8.580;2022-11-27T07:38:37;3.10;99.90
46490;DHT22;32204;49.160;8.580;2022-11-27T07:41:03;3.40;99.90
46490;DHT22;32204;49.160;8.580;2022-11-27T07:43:31;3.30;99.90
46490;DHT22;32204;49.160;8.580;2022-11-27T07:45:57;3.20;99.90
46490;DHT22;32204;49.160;8.580;2022-11-27T07:48:23;3.20;99.90
46490;DHT22;32204;49.160;8.580;2022-11-27T07:50:49;3.20;99.90
46490;DHT22;32204;49.160;8.580;2022-11-27T07:53:14;3.20;99.90
46490;DHT22;32204;49.160;8.580;2022-11-27T07:55:40;3.40;99.90
46490;DHT22;32204;49.160;8.580;2022-11-27T07:58:07;3.50;99.90
46490;DHT22;32204;49.160;8.580;2022-11-27T08:00:33;3.60;99.90
46490;DHT22;32204;49.160;8.580;2022-11-27T08:02:59;3.60;99.90
46490;DHT22;32204;49.160;8.580;2022-11-27T08:05:24;3.60;99.90
46490;DHT22;32204;49.160;8.580;2022-11-27T08:07:50;3.60;99.90
46490;DHT22;32204;49.160;8.580;2022-11-27T08:10:16;3.80;99.90
46490;DHT22;32204;49.160;8.580;2022-11-27T08:12:41;4.00;99.90
46490;DHT22;32204;49.160;8.580;2022-11-27T08:15:07;4.00;99.90
46490;DHT22;32204;49.160;8.580;2022-11-27T08:17:33;4.00;99.90
46490;DHT22;32204;49.160;8.580;2022-11-27T08:19:59;4.20;99.90
46490;DHT22;32204;49.160;8.580;2022-11-27T08:22:25;4.20;99.90
46490;DHT22;32204;49.160;8.580;2022-11-27T08:24:50;4.20;99.90
46490;DHT22;32204;49.160;8.580;2022-11-27T08:27:17;4.10;99.90
46490;DHT22;32204;49.160;8.580;2022-11-27T08:29:43;3.90;99.90
46490;DHT22;32204;49.160;8.580;2022-11-27T08:32:09;3.70;99.90
46490;DHT22;32204;49.160;8.580;2022-11-27T08:34:35;3.50;99.90
46490;DHT22;32204;49.160;8.580;2022-11-27T08:37:05;3.50;99.90
46490;DHT22;32204;49.160;8.580;2022-11-27T08:39:31;3.50;99.90
46490;DHT22;32204;49.160;8.580;2022-11-27T08:41:57;3.50;99.90
46490;DHT22;32204;49.160;8.580;2022-11-27T08:44:23;3.60;99.90
46490;DHT22;32204;49.160;8.580;2022-11-27T08:46:48;3.60;99.90
46490;DHT22;32204;49.160;8.580;2022-11-27T08:49:14;3.70;99.90
46490;DHT22;32204;49.160;8.580;2022-11-27T08:51:39;3.80;99.90
46490;DHT22;32204;49.160;8.580;2022-11-27T08:54:06;3.70;99.90
46490;DHT22;32204;49.160;8.580;2022-11-27T08:56:31;3.60;99.90
46490;DHT22;32204;49.160;8.580;2022-11-27T08:58:57;3.50;99.90
46490;DHT22;32204;49.160;8.580;2022-11-27T09:01:25;3.70;99.90
46490;DHT22;32204;49.160;8.580;2022-11-27T09:03:51;4.00;99.90
46490;DHT22;32204;49.160;8.580;2022-11-27T09:06:20;4.40;99.90
46490;DHT22;32204;49.160;8.580;2022-11-27T09:08:47;4.70;99.90
46490;DHT22;32204;49.160;8.580;2022-11-27T09:11:14;5.00;99.90
46490;DHT22;32204;49.160;8.580;2022-11-27T09:13:41;5.20;99.90
46490;DHT22;32204;49.160;8.580;2022-11-27T09:16:09;5.40;99.90
46490;DHT22;32204;49.160;8.580;2022-11-27T09:18:35;5.60;99.90
46490;DHT22;32204;49.160;8.580;2022-11-27T09:21:07;5.50;94.40
46490;DHT22;32204;49.160;8.580;2022-11-27T09:23:33;5.60;99.90
46490;DHT22;32204;49.160;8.580;2022-11-27T09:26:01;5.60;99.90
46490;DHT22;32204;49.160;8.580;2022-11-27T09:28:26;5.60;99.90
46490;DHT22;32204;49.160;8.580;2022-11-27T09:30:56;5.80;99.90
46490;DHT22;32204;49.160;8.580;2022-11-27T09:33:26;5.90;84.70
46490;DHT22;32204;49.160;8.580;2022-11-27T09:35:52;6.00;38.90
46490;DHT22;32204;49.160;8.580;2022-11-27T09:38:18;6.20;1.00
46490;DHT22;32204;49.160;8.580;2022-11-27T09:40:49;6.00;1.00
46490;DHT22;32204;49.160;8.580;2022-11-27T09:43:16;6.00;1.00
46490;DHT22;32204;49.160;8.580;2022-11-27T09:45:48;6.00;1.00
46490;DHT22;32204;49.160;8.580;2022-11-27T09:48:19;5.90;1.00
46490;DHT22;32204;49.160;8.580;2022-11-27T09:50:48;5.90;1.00
46490;DHT22;32204;49.160;8.580;2022-11-27T09:53:26;6.10;1.00
46490;DHT22;32204;49.160;8.580;2022-11-27T09:55:53;6.10;1.00
46490;DHT22;32204;49.160;8.580;2022-11-27T09:58:56;6.20;1.00
46490;DHT22;32204;49.160;8.580;2022-11-27T10:01:28;6.20;99.90
46490;DHT22;32204;49.160;8.580;2022-11-27T10:03:54;6.30;99.90
46490;DHT22;32204;49.160;8.580;2022-11-27T10:12:20;6.50;99.90
46490;DHT22;32204;49.160;8.580;2022-11-27T10:17:38;6.60;99.90
46490;DHT22;32204;49.160;8.580;2022-11-27T10:23:01;7.00;99.90
46490;DHT22;32204;49.160;8.580;2022-11-27T10:25:48;7.10;1.00
46490;DHT22;32204;49.160;8.580;2022-11-27T10:33:40;7.00;1.00
46490;DHT22;32204;49.160;8.580;2022-11-27T10:36:14;7.30;99.90
46490;DHT22;32204;49.160;8.580;2022-11-27T10:38:42;7.30;99.90
46490;DHT22;32204;49.160;8.580;2022-11-27T10:41:17;7.50;99.90
46490;DHT22;32204;49.160;8.580;2022-11-27T10:43:45;7.60;28.30
46490;DHT22;32204;49.160;8.580;2022-11-27T10:46:13;7.80;99.90
46490;DHT22;32204;49.160;8.580;2022-11-27T10:48:39;7.80;1.00
46490;DHT22;32204;49.160;8.580;2022-11-27T10:51:14;7.90;99.90
46490;DHT22;32204;49.160;8.580;2022-11-27T10:53:42;8.00;1.00
46490;DHT22;32204;49.160;8.580;2022-11-27T11:01:27;8.20;99.90
46490;DHT22;32204;49.160;8.580;2022-11-27T11:04:07;8.30;1.00
46490;DHT22;32204;49.160;8.580;2022-11-27T11:06:40;8.10;99.90
46490;DHT22;32204;49.160;8.580;2022-11-27T11:09:26;8.00;99.90
46490;DHT22;32204;49.160;8.580;2022-11-27T11:14:38;8.40;20.80
46490;DHT22;32204;49.160;8.580;2022-11-27T11:17:14;8.20;1.00
46490;DHT22;32204;49.160;8.580;2022-11-27T11:19:41;8.10;99.90
46490;DHT22;32204;49.160;8.580;2022-11-27T11:22:13;8.10;99.90
46490;DHT22;32204;49.160;8.580;2022-11-27T11:24:47;7.80;99.90
46490;DHT22;32204;49.160;8.580;2022-11-27T11:29:50;7.90;1.00
46490;DHT22;32204;49.160;8.580;2022-11-27T11:34:48;8.10;1.00
46490;DHT22;32204;49.160;8.580;2022-11-27T11:37:18;8.10;1.00
46490;DHT22;32204;49.160;8.580;2022-11-27T11:39:46;8.10;1.00
46490;DHT22;32204;49.160;8.580;2022-11-27T11:42:22;8.00;99.90
46490;DHT22;32204;49.160;8.580;2022-11-27T11:45:15;7.90;99.90
46490;DHT22;32204;49.160;8.580;2022-11-27T11:47:56;7.90;99.90
46490;DHT22;32204;49.160;8.580;2022-11-27T11:50:36;7.90;99.90
46490;DHT22;32204;49.160;8.580;2022-11-27T11:53:25;7.90;99.90
46490;DHT22;32204;49.160;8.580;2022-11-27T11:56:30;7.90;99.90
46490;DHT22;32204;49.160;8.580;2022-11-27T11:59:02;8.10;99.90
46490;DHT22;32204;49.160;8.580;2022-11-27T12:09:56;8.10;99.90
46490;DHT22;32204;49.160;8.580;2022-11-27T12:18:23;8.30;99.90
46490;DHT22;32204;49.160;8.580;2022-11-27T12:20:55;8.30;1.00
46490;DHT22;32204;49.160;8.580;2022-11-27T12:26:39;8.60;39.20
46490;DHT22;32204;49.160;8.580;2022-11-27T12:29:24;8.70;1.00
46490;DHT22;32204;49.160;8.580;2022-11-27T12:43:31;8.30;99.90
46490;DHT22;32204;49.160;8.580;2022-11-27T12:46:32;8.30;99.90
46490;DHT22;32204;49.160;8.580;2022-11-27T12:49:14;8.40;99.90
46490;DHT22;32204;49.160;8.580;2022-11-27T12:54:23;8.20;99.90
46490;DHT22;32204;49.160;8.580;2022-11-27T12:56:59;8.30;99.90
46490;DHT22;32204;49.160;8.580;2022-11-27T12:59:43;8.00;99.90
46490;DHT22;32204;49.160;8.580;2022-11-27T13:02:48;7.90;1.00
46490;DHT22;32204;49.160;8.580;2022-11-27T13:05:18;8.00;99.90
46490;DHT22;32204;49.160;8.580;2022-11-27T13:10:34;7.80;1.00
46490;DHT22;32204;49.160;8.580;2022-11-27T13:13:23;7.80;1.00
46490;DHT22;32204;49.160;8.580;2022-11-27T13:18:39;7.80;1.00
46490;DHT22;32204;49.160;8.580;2022-11-27T13:21:13;7.70;1.00
46490;DHT22;32204;49.160;8.580;2022-11-27T13:23:39;7.60;1.00
46490;DHT22;32204;49.160;8.580;2022-11-27T13:26:11;7.50;1.00
46490;DHT22;32204;49.160;8.580;2022-11-27T13:28:50;7.50;1.00
46490;DHT22;32204;49.160;8.580;2022-11-27T13:31:21;7.20;1.00
46490;DHT22;32204;49.160;8.580;2022-11-27T13:33:47;7.10;1.00
46490;DHT22;32204;49.160;8.580;2022-11-27T13:36:23;7.10;1.00
46490;DHT22;32204;49.160;8.580;2022-11-27T13:38:58;7.00;1.00
46490;DHT22;32204;49.160;8.580;2022-11-27T13:41:34;7.00;12.30
46490;DHT22;32204;49.160;8.580;2022-11-27T13:44:03;7.00;1.00
46490;DHT22;32204;49.160;8.580;2022-11-27T13:46:43;7.00;23.70
46490;DHT22;32204;49.160;8.580;2022-11-27T13:49:30;6.90;20.40
46490;DHT22;32204;49.160;8.580;2022-11-27T13:52:22;6.90;78.40
46490;DHT22;32204;49.160;8.580;2022-11-27T13:54:59;7.00;17.70
46490;DHT22;32204;49.160;8.580;2022-11-27T13:57:27;6.90;15.00
46490;DHT22;32204;49.160;8.580;2022-11-27T14:00:11;7.00;27.50
46490;DHT22;32204;49.160;8.580;2022-11-27T14:02:47;7.10;43.90
46490;DHT22;32204;49.160;8.580;2022-11-27T14:05:19;7.20;1.00
46490;DHT22;32204;49.160;8.580;2022-11-27T14:07:51;7.20;1.00
46490;DHT22;32204;49.160;8.580;2022-11-27T14:10:21;7.20;1.00
46490;DHT22;32204;49.160;8.580;2022-11-27T14:13:03;7.20;1.00
46490;DHT22;32204;49.160;8.580;2022-11-27T14:15:32;7.30;1.00
46490;DHT22;32204;49.160;8.580;2022-11-27T14:18:15;7.20;1.00
46490;DHT22;32204;49.160;8.580;2022-11-27T14:20:53;7.50;1.00
46490;DHT22;32204;49.160;8.580;2022-11-27T14:23:33;7.50;1.00
46490;DHT22;32204;49.160;8.580;2022-11-27T14:28:41;7.70;1.00
46490;DHT22;32204;49.160;8.580;2022-11-27T14:31:30;7.70;1.00
46490;DHT22;32204;49.160;8.580;2022-11-27T14:33:55;7.60;1.00
46490;DHT22;32204;49.160;8.580;2022-11-27T14:36:27;7.50;1.00
46490;DHT22;32204;49.160;8.580;2022-11-27T14:38:55;7.50;1.00
46490;DHT22;32204;49.160;8.580;2022-11-27T14:41:22;7.50;1.00
46490;DHT22;32204;49.160;8.580;2022-11-27T14:44:02;7.50;1.00
46490;DHT22;32204;49.160;8.580;2022-11-27T14:46:28;7.60;1.00
46490;DHT22;32204;49.160;8.580;2022-11-27T14:48:55;7.70;1.00
46490;DHT22;32204;49.160;8.580;2022-11-27T14:51:23;7.70;1.00
46490;DHT22;32204;49.160;8.580;2022-11-27T14:53:55;7.80;1.00
46490;DHT22;32204;49.160;8.580;2022-11-27T14:56:22;7.80;1.00
46490;DHT22;32204;49.160;8.580;2022-11-27T14:58:53;7.80;1.00
46490;DHT22;32204;49.160;8.580;2022-11-27T15:01:40;7.90;1.00
46490;DHT22;32204;49.160;8.580;2022-11-27T15:04:23;7.70;1.00
46490;DHT22;32204;49.160;8.580;2022-11-27T15:06:49;7.70;1.00
46490;DHT22;32204;49.160;8.580;2022-11-27T15:09:21;7.60;1.00
46490;DHT22;32204;49.160;8.580;2022-11-27T15:12:05;7.70;1.00
46490;DHT22;32204;49.160;8.580;2022-11-27T15:14:33;7.50;1.00
46490;DHT22;32204;49.160;8.580;2022-11-27T15:17:00;7.30;1.00
46490;DHT22;32204;49.160;8.580;2022-11-27T15:19:36;7.30;1.00
46490;DHT22;32204;49.160;8.580;2022-11-27T15:22:02;7.20;1.00
46490;DHT22;32204;49.160;8.580;2022-11-27T15:24:32;7.20;1.00
46490;DHT22;32204;49.160;8.580;2022-11-27T15:29:40;7.10;62.30
46490;DHT22;32204;49.160;8.580;2022-11-27T15:32:22;7.20;26.20
46490;DHT22;32204;49.160;8.580;2022-11-27T15:34:51;7.30;5.40
46490;DHT22;32204;49.160;8.580;2022-11-27T15:37:21;7.40;1.00
46490;DHT22;32204;49.160;8.580;2022-11-27T15:39:50;7.60;1.00
46490;DHT22;32204;49.160;8.580;2022-11-27T15:42:16;7.40;1.00
46490;DHT22;32204;49.160;8.580;2022-11-27T15:44:43;7.30;1.00
46490;DHT22;32204;49.160;8.580;2022-11-27T15:49:54;7.30;1.00
46490;DHT22;32204;49.160;8.580;2022-11-27T15:52:20;7.40;1.00
46490;DHT22;32204;49.160;8.580;2022-11-27T15:54:45;7.50;1.00
46490;DHT22;32204;49.160;8.580;2022-11-27T15:57:11;7.60;1.00
46490;DHT22;32204;49.160;8.580;2022-11-27T15:59:37;7.70;1.00
46490;DHT22;32204;49.160;8.580;2022-11-27T16:02:04;7.70;1.00
46490;DHT22;32204;49.160;8.580;2022-11-27T16:04:29;7.80;1.00
46490;DHT22;32204;49.160;8.580;2022-11-27T16:06:55;7.80;1.00
46490;DHT22;32204;49.160;8.580;2022-11-27T16:09:21;7.70;1.00
46490;DHT22;32204;49.160;8.580;2022-11-27T16:11:46;7.50;1.00
46490;DHT22;32204;49.160;8.580;2022-11-27T16:14:12;7.30;1.00
46490;DHT22;32204;49.160;8.580;2022-11-27T16:16:38;7.30;1.00
46490;DHT22;32204;49.160;8.580;2022-11-27T16:19:05;7.20;1.00
46490;DHT22;32204;49.160;8.580;2022-11-27T16:21:32;7.20;16.30
46490;DHT22;32204;49.160;8.580;2022-11-27T16:24:01;7.20;5.20
46490;DHT22;32204;49.160;8.580;2022-11-27T16:26:27;7.20;7.60
46490;DHT22;32204;49.160;8.580;2022-11-27T16:28:53;7.00;51.40
46490;DHT22;32204;49.160;8.580;2022-11-27T16:31:19;7.10;97.40
46490;DHT22;32204;49.160;8.580;2022-11-27T16:33:45;7.30;33.00
46490;DHT22;32204;49.160;8.580;2022-11-27T16:36:14;7.30;2.60
46490;DHT22;32204;49.160;8.580;2022-11-27T16:38:40;7.40;1.00
46490;DHT22;32204;49.160;8.580;2022-11-27T16:41:09;7.30;1.00
46490;DHT22;32204;49.160;8.580;2022-11-27T16:43:38;7.10;19.80
46490;DHT22;32204;49.160;8.580;2022-11-27T16:46:10;7.00;90.10
46490;DHT22;32204;49.160;8.580;2022-11-27T16:48:37;7.10;56.70
46490;DHT22;32204;49.160;8.580;2022-11-27T16:51:05;7.10;62.80
46490;DHT22;32204;49.160;8.580;2022-11-27T16:53:30;7.30;26.90
46490;DHT22;32204;49.160;8.580;2022-11-27T16:55:56;7.40;1.00
46490;DHT22;32204;49.160;8.580;2022-11-27T16:58:22;7.40;1.00
46490;DHT22;32204;49.160;8.580;2022-11-27T17:00:47;7.50;1.00
46490;DHT22;32204;49.160;8.580;2022-11-27T17:03:13;7.50;1.00
46490;DHT22;32204;49.160;8.580;2022-11-27T17:05:38;7.60;1.00
46490;DHT22;32204;49.160;8.580;2022-11-27T17:08:04;7.50;1.00
46490;DHT22;32204;49.160;8.580;2022-11-27T17:10:30;7.40;1.00
46490;DHT22;32204;49.160;8.580;2022-11-27T17:12:55;7.40;1.00
46490;DHT22;32204;49.160;8.580;2022-11-27T17:15:21;7.40;1.00
46490;DHT22;32204;49.160;8.580;2022-11-27T17:17:46;7.40;1.00
46490;DHT22;32204;49.160;8.580;2022-11-27T17:20:12;7.40;1.00
46490;DHT22;32204;49.160;8.580;2022-11-27T17:22:38;7.10;1.00
46490;DHT22;32204;49.160;8.580;2022-11-27T17:25:04;7.00;99.90
46490;DHT22;32204;49.160;8.580;2022-11-27T17:27:35;7.10;99.90
46490;DHT22;32204;49.160;8.580;2022-11-27T17:30:01;7.20;75.70
46490;DHT22;32204;49.160;8.580;2022-11-27T17:32:26;7.20;14.80
46490;DHT22;32204;49.160;8.580;2022-11-27T17:34:52;7.20;38.00
46490;DHT22;32204;49.160;8.580;2022-11-27T17:37:17;7.10;1.00
46490;DHT22;32204;49.160;8.580;2022-11-27T17:39:44;7.10;51.90
46490;DHT22;32204;49.160;8.580;2022-11-27T17:42:09;7.20;35.80